createdAt,value
2022-10-05T00:04:28.459Z,2.92
2022-10-05T00:09:35.015Z,3.00
2022-10-05T00:14:35.995Z,3.25
2022-10-05T00:19:35.217Z,4.47
2022-10-05T00:24:40.253Z,3.08
2022-10-05T00:29:38.632Z,3.08
2022-10-05T00:34:37.741Z,3.10
2022-10-05T00:39:36.972Z,4.28
2022-10-05T00:44:43.246Z,3.65
2022-10-05T00:50:18.873Z,3.38
2022-10-05T00:55:24.270Z,3.03
2022-10-05T01:05:34.231Z,3.70
2022-10-05T01:10:41.473Z,3.35
2022-10-05T01:15:51.524Z,3.67
2022-10-05T01:21:12.027Z,3.20
2022-10-05T01:26:35.639Z,3.40
2022-10-05T01:31:40.222Z,3.10
2022-10-05T01:36:45.741Z,3.40
2022-10-05T01:41:50.158Z,3.70
2022-10-05T01:46:58.367Z,3.13
2022-10-05T01:52:09.327Z,2.53
2022-10-05T01:57:17.151Z,2.78
2022-10-05T02:02:23.666Z,2.80
2022-10-05T02:07:30.942Z,3.10
2022-10-05T02:12:33.009Z,3.20
2022-10-05T02:17:41.925Z,2.85
2022-10-05T02:22:43.831Z,2.55
2022-10-05T02:27:49.217Z,2.47
2022-10-05T02:32:54.143Z,3.33
2022-10-05T02:38:08.015Z,2.90
2022-10-05T02:43:19.599Z,2.78
2022-10-05T02:48:31.247Z,3.42
2022-10-05T02:53:37.799Z,2.35
2022-10-05T02:58:45.982Z,2.75
2022-10-05T03:03:53.286Z,2.53
2022-10-05T03:08:59.837Z,2.45
2022-10-05T03:14:05.853Z,3.53
2022-10-05T03:19:17.150Z,3.00
2022-10-05T03:24:34.842Z,3.22
2022-10-05T03:29:40.385Z,3.35
2022-10-05T03:34:48.728Z,2.83
2022-10-05T03:39:51.903Z,3.42
2022-10-05T03:45:00.148Z,3.90
2022-10-05T03:50:23.452Z,3.88
2022-10-05T03:55:33.217Z,3.70
2022-10-05T04:00:34.802Z,4.43
2022-10-05T04:05:41.167Z,3.65
2022-10-05T04:10:44.070Z,3.92
2022-10-05T04:15:46.342Z,3.50
2022-10-05T04:20:46.954Z,3.83
2022-10-05T04:25:50.454Z,4.30
2022-10-05T04:30:52.199Z,4.13
2022-10-05T04:36:32.795Z,4.32
2022-10-05T04:47:24.459Z,3.85
2022-10-05T04:52:39.553Z,4.07
2022-10-05T04:57:58.678Z,3.95
2022-10-05T05:03:27.285Z,4.35
2022-10-05T05:14:28.824Z,6.20
2022-10-05T05:19:40.359Z,4.82
2022-10-05T05:24:56.970Z,4.15
2022-10-05T05:30:04.074Z,4.10
2022-10-05T05:35:33.706Z,4.38
2022-10-05T05:40:36.281Z,4.65
2022-10-05T05:45:44.802Z,4.20
2022-10-05T05:50:55.931Z,3.80
2022-10-05T05:56:01.187Z,3.88
2022-10-05T06:01:20.257Z,4.22
2022-10-05T06:06:30.504Z,3.57
2022-10-05T06:11:32.997Z,5.65
2022-10-05T06:16:37.098Z,5.18
2022-10-05T06:21:44.992Z,4.18
2022-10-05T06:27:19.112Z,3.97
2022-10-05T06:32:26.247Z,3.67
2022-10-05T06:37:38.607Z,4.72
2022-10-05T06:43:03.676Z,5.25
2022-10-05T06:48:11.921Z,5.05
2022-10-05T06:53:59.876Z,4.20
2022-10-05T06:59:09.927Z,3.78
2022-10-05T07:04:21.708Z,4.78
2022-10-05T07:09:31.612Z,4.03
2022-10-05T07:15:01.972Z,4.30
2022-10-05T07:20:08.571Z,4.50
2022-10-05T07:25:14.996Z,3.90
2022-10-05T07:30:15.603Z,3.00
2022-10-05T07:35:38.933Z,3.95
2022-10-05T07:40:47.243Z,3.50
2022-10-05T07:45:51.890Z,3.25
2022-10-05T07:51:02.260Z,4.07
2022-10-05T07:56:07.411Z,3.13
2022-10-05T08:01:23.147Z,3.97
2022-10-05T08:06:51.144Z,3.85
2022-10-05T08:12:08.850Z,3.42
2022-10-05T08:17:31.482Z,2.72
2022-10-05T08:22:46.188Z,3.35
2022-10-05T08:27:54.597Z,3.88
2022-10-05T08:33:07.323Z,3.10
2022-10-05T08:38:13.256Z,3.33
2022-10-05T08:44:12.269Z,3.45
2022-10-05T08:49:50.468Z,2.55
2022-10-05T08:55:07.519Z,2.85
2022-10-05T09:00:11.546Z,2.70
2022-10-05T09:05:44.225Z,2.85
2022-10-05T09:11:01.932Z,2.65
2022-10-05T09:16:35.593Z,2.85
2022-10-05T09:22:03.889Z,2.65
2022-10-05T09:27:10.194Z,9.48
2022-10-05T09:32:43.922Z,2.45
2022-10-05T09:38:41.627Z,2.85
2022-10-05T09:44:28.717Z,3.13
2022-10-05T09:50:07.867Z,2.90
2022-10-05T09:55:30.535Z,3.03
2022-10-05T10:00:35.767Z,2.95
2022-10-05T10:06:35.332Z,2.95
2022-10-05T10:11:53.472Z,3.70
2022-10-05T10:17:30.230Z,4.00
2022-10-05T10:23:24.845Z,4.45
2022-10-05T10:29:03.483Z,3.53
2022-10-05T10:34:38.078Z,4.88
2022-10-05T10:40:11.722Z,3.95
2022-10-05T10:45:26.251Z,4.28
2022-10-05T10:51:05.664Z,3.63
2022-10-05T10:56:39.845Z,4.57
2022-10-05T11:02:01.666Z,4.28
2022-10-05T11:07:36.853Z,3.97
2022-10-05T11:13:28.263Z,3.97
2022-10-05T11:18:41.298Z,3.65
2022-10-05T11:24:38.164Z,3.30
2022-10-05T11:30:02.810Z,3.33
2022-10-05T11:35:37.006Z,2.88
2022-10-05T11:41:25.613Z,4.10
2022-10-05T11:46:52.390Z,2.60
2022-10-05T11:52:03.946Z,2.00
2022-10-05T11:57:04.796Z,2.00
2022-10-05T12:02:47.644Z,4.25
2022-10-05T12:08:40.575Z,2.50
2022-10-05T12:13:47.329Z,3.00
2022-10-05T12:19:42.146Z,2.80
2022-10-05T12:25:01.784Z,3.45
2022-10-05T12:30:12.380Z,2.28
2022-10-05T12:35:43.899Z,2.50
2022-10-05T12:40:51.053Z,2.83
2022-10-05T12:46:17.989Z,2.20
2022-10-05T12:51:26.523Z,2.08
2022-10-05T12:56:54.788Z,3.38
2022-10-05T13:02:01.922Z,2.15
2022-10-05T13:07:32.099Z,2.20
2022-10-05T13:12:44.284Z,2.22
2022-10-05T13:17:51.285Z,1.63
2022-10-05T13:22:59.881Z,1.70
2022-10-05T13:28:21.779Z,1.77
2022-10-05T13:34:16.898Z,2.13
2022-10-05T13:45:43.133Z,2.40
2022-10-05T13:50:48.356Z,1.95
2022-10-05T14:01:43.051Z,1.50
2022-10-05T14:06:44.651Z,1.92
2022-10-05T14:11:53.195Z,1.90
2022-10-05T14:17:00.996Z,2.22
2022-10-05T14:22:31.544Z,2.20
2022-10-05T14:27:36.164Z,2.03
2022-10-05T14:32:56.173Z,2.17
2022-10-05T14:37:59.789Z,1.90
2022-10-05T14:43:08.860Z,2.60
2022-10-05T14:48:11.050Z,2.88
2022-10-05T14:54:19.253Z,2.75
2022-10-05T14:59:35.076Z,3.58
2022-10-05T15:04:49.406Z,2.42
2022-10-05T15:10:01.531Z,2.80
2022-10-05T15:15:26.670Z,3.08
2022-10-05T15:20:36.678Z,2.33
2022-10-05T15:26:08.749Z,3.78
2022-10-05T15:32:00.921Z,2.38
2022-10-05T15:38:10.225Z,3.33
2022-10-05T15:43:24.110Z,2.72
2022-10-05T15:48:29.323Z,3.30
2022-10-05T15:53:47.192Z,2.47
2022-10-05T15:59:17.620Z,3.13
2022-10-05T16:04:26.165Z,2.60
2022-10-05T16:10:10.575Z,4.05
2022-10-05T16:21:36.321Z,5.30
2022-10-05T16:39:04.922Z,5.50
2022-10-05T16:44:33.343Z,5.13
2022-10-05T16:49:52.073Z,6.03
2022-10-05T16:55:06.441Z,5.75
2022-10-05T17:01:04.378Z,6.15
2022-10-05T17:06:35.146Z,6.43
2022-10-05T17:11:59.767Z,5.35
2022-10-05T17:17:51.909Z,5.45
2022-10-05T17:29:15.544Z,7.90
2022-10-05T17:34:33.860Z,6.03
2022-10-05T17:39:51.304Z,5.78
2022-10-05T17:45:07.667Z,5.90
2022-10-05T17:51:05.638Z,6.45
2022-10-05T17:57:16.333Z,5.80
2022-10-05T18:02:49.642Z,6.13
2022-10-05T18:08:41.420Z,9.90
2022-10-05T18:13:49.180Z,6.97
2022-10-05T18:19:00.563Z,6.88
2022-10-05T18:24:23.536Z,6.70
2022-10-05T18:30:11.097Z,9.32
2022-10-05T18:36:56.647Z,9.32
2022-10-05T18:42:24.138Z,7.72
2022-10-05T18:47:34.667Z,6.90
2022-10-05T18:53:28.419Z,6.32
2022-10-05T18:58:52.124Z,4.80
2022-10-05T19:04:14.387Z,4.60
2022-10-05T19:09:26.385Z,4.75
2022-10-05T19:14:34.901Z,4.10
2022-10-05T19:19:57.605Z,3.70
2022-10-05T19:31:18.221Z,4.63
2022-10-05T19:36:41.976Z,4.28
2022-10-05T19:42:09.025Z,4.22
2022-10-05T19:47:21.927Z,3.65
2022-10-05T19:52:30.917Z,3.38
2022-10-05T20:03:50.549Z,5.95
2022-10-05T20:08:57.644Z,4.00
2022-10-05T20:14:19.354Z,4.13
2022-10-05T20:20:04.676Z,5.03
2022-10-05T20:25:13.334Z,4.68
2022-10-05T20:30:14.725Z,4.60
2022-10-05T20:35:29.540Z,5.90
2022-10-05T20:40:29.647Z,5.20
2022-10-05T20:46:22.658Z,5.35
2022-10-05T20:51:24.529Z,5.13
2022-10-05T20:56:28.491Z,5.10
2022-10-05T21:01:31.259Z,5.70
2022-10-05T21:06:30.402Z,5.07
2022-10-05T21:11:30.372Z,4.93
2022-10-05T21:16:30.698Z,4.80
2022-10-05T21:21:30.424Z,4.75
2022-10-05T21:26:28.558Z,5.18
2022-10-05T21:31:29.121Z,5.82
2022-10-05T21:36:31.863Z,5.68
2022-10-05T21:41:36.614Z,6.13
2022-10-05T21:47:15.163Z,5.85
2022-10-05T21:52:20.688Z,5.07
2022-10-05T21:57:22.555Z,5.35
2022-10-05T22:02:19.617Z,6.20
2022-10-05T22:07:19.396Z,6.63
2022-10-05T22:12:19.290Z,6.40
2022-10-05T22:17:24.333Z,6.82
2022-10-05T22:22:22.142Z,6.32
2022-10-05T22:27:43.469Z,6.20
2022-10-05T22:32:44.394Z,6.28
2022-10-05T22:38:18.939Z,4.68
2022-10-05T22:43:18.555Z,5.30
2022-10-05T22:48:16.577Z,4.68
2022-10-05T22:53:14.788Z,3.72
2022-10-05T22:58:12.524Z,4.20
2022-10-05T23:03:10.557Z,4.57
2022-10-05T23:08:09.288Z,4.80
2022-10-05T23:13:07.033Z,5.05
2022-10-05T23:18:04.477Z,3.95
2022-10-05T23:23:05.612Z,3.38
2022-10-05T23:28:04.727Z,3.83
2022-10-05T23:33:16.496Z,3.90
2022-10-05T23:38:37.030Z,3.97
2022-10-05T23:43:37.708Z,4.00
2022-10-05T23:48:37.514Z,4.65
2022-10-05T23:53:35.595Z,3.55
2022-10-05T23:58:53.254Z,3.95
